createdAt,value
2017-02-08T00:00:08.587Z,0.7
2017-02-08T00:01:17.542Z,0.69
2017-02-08T00:02:26.485Z,0.73
2017-02-08T00:03:35.434Z,0.73
2017-02-08T00:04:44.686Z,0.69
2017-02-08T00:05:53.636Z,0.68
2017-02-08T00:07:02.598Z,0.79
2017-02-08T00:08:11.690Z,0.79
2017-02-08T00:09:20.790Z,0.79
2017-02-08T00:10:30.144Z,0.69
2017-02-08T00:11:39.358Z,0.68
2017-02-08T00:12:48.304Z,0.61
2017-02-08T00:13:57.336Z,0.7
2017-02-08T00:15:06.285Z,0.62
2017-02-08T00:16:15.238Z,0.58
2017-02-08T00:17:24.184Z,0.55
2017-02-08T00:18:33.559Z,0.49
2017-02-08T00:19:42.507Z,0.51
2017-02-08T00:20:51.452Z,0.42
2017-02-08T00:22:00.407Z,0.41
2017-02-08T00:23:09.375Z,0.53
2017-02-08T00:24:18.322Z,0.51
2017-02-08T00:25:27.708Z,0.5
2017-02-08T00:26:36.655Z,0.5
2017-02-08T00:27:45.603Z,0.53
2017-02-08T00:28:54.968Z,0.55
2017-02-08T00:30:04.327Z,0.58
2017-02-08T00:31:13.284Z,0.58
2017-02-08T00:32:22.231Z,0.7
2017-02-08T00:33:31.265Z,0.6
2017-02-08T00:34:40.223Z,0.53
2017-02-08T00:35:52.146Z,0.44
2017-02-08T00:37:07.109Z,0.55
2017-02-08T00:38:19.475Z,0.49
2017-02-08T00:39:33.623Z,0.5
2017-02-08T00:40:44.098Z,0.55
2017-02-08T00:41:56.177Z,0.58
2017-02-08T00:43:09.189Z,0.57
2017-02-08T00:44:21.527Z,0.55
2017-02-08T00:45:35.334Z,0.55
2017-02-08T00:46:44.283Z,0.61
2017-02-08T00:47:59.890Z,0.55
2017-02-08T00:49:11.841Z,0.6
2017-02-08T00:50:27.736Z,0.58
2017-02-08T00:51:39.420Z,0.55
2017-02-08T00:52:49.970Z,0.53
2017-02-08T00:54:02.380Z,0.6
2017-02-08T00:55:11.886Z,0.5
2017-02-08T00:56:21.163Z,0.53
2017-02-08T00:57:30.112Z,0.55
2017-02-08T00:58:40.177Z,0.55
2017-02-08T00:59:49.587Z,0.57
2017-02-08T01:01:00.689Z,0.55
2017-02-08T01:02:09.635Z,0.53
2017-02-08T01:03:20.542Z,0.62
2017-02-08T01:04:33.282Z,0.6
2017-02-08T01:05:43.356Z,0.6
2017-02-08T01:06:53.141Z,0.7
2017-02-08T01:08:02.162Z,0.7
2017-02-08T01:09:11.681Z,0.65
2017-02-08T01:10:20.714Z,0.62
2017-02-08T01:11:30.584Z,0.57
2017-02-08T01:12:39.537Z,0.51
2017-02-08T01:13:49.148Z,0.55
2017-02-08T01:14:58.100Z,0.55
2017-02-08T01:16:07.782Z,0.61
2017-02-08T01:17:16.730Z,0.62
2017-02-08T01:18:26.369Z,0.61
2017-02-08T01:19:35.316Z,0.57
2017-02-08T01:20:45.066Z,0.6
2017-02-08T01:21:54.022Z,0.55
2017-02-08T01:23:03.705Z,0.39
2017-02-08T01:24:12.656Z,0.41
2017-02-08T01:25:21.879Z,0.49
2017-02-08T01:26:30.827Z,0.49
2017-02-08T01:27:40.749Z,0.41
2017-02-08T01:28:49.748Z,0.33
2017-02-08T01:29:59.252Z,0.47
2017-02-08T01:31:08.205Z,0.39
2017-02-08T01:32:17.889Z,0.5
2017-02-08T01:33:26.837Z,0.5
2017-02-08T01:34:36.527Z,0.41
2017-02-08T01:35:45.478Z,0.36
2017-02-08T01:36:55.231Z,0.28
2017-02-08T01:38:04.583Z,0.26
2017-02-08T01:39:14.415Z,0.28
2017-02-08T01:40:23.360Z,0.28
2017-02-08T01:41:34.060Z,0.24
2017-02-08T01:42:43.009Z,0.28
2017-02-08T01:43:54.503Z,0.26
2017-02-08T01:45:06.782Z,0.39
2017-02-08T01:46:15.821Z,0.41
2017-02-08T01:47:27.974Z,0.39
2017-02-08T01:48:40.381Z,0.41
2017-02-08T01:49:49.895Z,0.49
2017-02-08T01:51:01.139Z,0.35
2017-02-08T01:52:11.891Z,0.39
2017-02-08T01:53:20.837Z,0.26
2017-02-08T01:54:30.197Z,0.26
2017-02-08T01:55:39.153Z,0.17
2017-02-08T01:56:48.100Z,0.2
2017-02-08T01:57:57.047Z,0.11
2017-02-08T01:59:05.991Z,0
2017-02-08T02:00:14.934Z,0.04
2017-02-08T02:01:23.879Z,-0.01
2017-02-08T02:02:32.834Z,-0.01
2017-02-08T02:03:41.785Z,-0.04
2017-02-08T02:04:50.730Z,0.03
2017-02-08T02:05:59.673Z,0.04
2017-02-08T02:07:08.618Z,0.1
2017-02-08T02:08:17.570Z,0.04
2017-02-08T02:09:26.600Z,0.07
2017-02-08T02:10:35.551Z,0
2017-02-08T02:11:44.538Z,0.03
2017-02-08T02:12:53.483Z,-0.05
2017-02-08T02:14:02.434Z,0.02
2017-02-08T02:15:11.385Z,-0.16
2017-02-08T02:16:20.336Z,-0.07
2017-02-08T02:17:29.282Z,-0.16
2017-02-08T02:18:38.223Z,-0.18
2017-02-08T02:19:47.169Z,-0.14
2017-02-08T02:20:56.113Z,-0.16
2017-02-08T02:22:05.056Z,-0.08
2017-02-08T02:23:14.008Z,-0.18
2017-02-08T02:24:22.958Z,-0.21
2017-02-08T02:25:31.910Z,-0.16
2017-02-08T02:26:40.858Z,-0.18
2017-02-08T02:27:49.808Z,-0.25
2017-02-08T02:28:58.846Z,-0.22
2017-02-08T02:30:07.793Z,-0.18
2017-02-08T02:31:16.739Z,-0.07
2017-02-08T02:32:26.102Z,-0.15
2017-02-08T02:33:35.051Z,-0.08
2017-02-08T02:34:43.996Z,-0.1
2017-02-08T02:35:52.943Z,-0.16
2017-02-08T02:37:01.894Z,-0.08
2017-02-08T02:38:10.841Z,-0.16
2017-02-08T02:39:19.878Z,-0.26
2017-02-08T02:40:28.829Z,-0.19
2017-02-08T02:41:38.186Z,-0.11
2017-02-08T02:42:47.220Z,-0.1
2017-02-08T02:43:56.167Z,-0.18
2017-02-08T02:45:05.120Z,-0.03
2017-02-08T02:46:14.063Z,-0.1
2017-02-08T02:47:23.416Z,-0.15
2017-02-08T02:48:32.362Z,-0.08
2017-02-08T02:49:41.719Z,-0.05
2017-02-08T02:50:50.669Z,-0.01
2017-02-08T02:51:59.613Z,-0.11
2017-02-08T02:53:08.561Z,0.03
2017-02-08T02:54:17.913Z,0.02
2017-02-08T02:55:26.950Z,0.14
2017-02-08T02:56:35.890Z,0.1
2017-02-08T02:57:45.245Z,0.1
2017-02-08T02:58:54.192Z,0.02
2017-02-08T03:00:03.229Z,-0.08
2017-02-08T03:01:12.304Z,-0.04
2017-02-08T03:02:21.250Z,-0.16
2017-02-08T03:03:30.195Z,-0.14
2017-02-08T03:04:39.140Z,-0.11
2017-02-08T03:05:48.085Z,-0.19
2017-02-08T03:06:57.211Z,-0.16
2017-02-08T03:08:06.162Z,-0.1
2017-02-08T03:09:15.104Z,-0.11
2017-02-08T03:10:24.055Z,-0.22
2017-02-08T03:11:33.003Z,-0.34
2017-02-08T03:12:41.956Z,-0.25
2017-02-08T03:13:50.902Z,-0.23
2017-02-08T03:14:59.939Z,-0.26
2017-02-08T03:16:08.883Z,-0.18
2017-02-08T03:17:17.831Z,-0.11
2017-02-08T03:18:26.779Z,-0.07
2017-02-08T03:19:35.723Z,-0.07
2017-02-08T03:20:44.670Z,0.04
2017-02-08T03:21:53.646Z,0.02
2017-02-08T03:23:03.001Z,-0.18
2017-02-08T03:24:12.358Z,-0.01
2017-02-08T03:25:21.392Z,-0.07
2017-02-08T03:26:30.343Z,-0.08
2017-02-08T03:27:39.292Z,-0.03
2017-02-08T03:28:48.329Z,-0.01
2017-02-08T03:29:57.277Z,-0.03
2017-02-08T03:31:06.315Z,0.04
2017-02-08T03:32:15.261Z,0.03
2017-02-08T03:33:24.207Z,-0.01
2017-02-08T03:34:33.566Z,-0.05
2017-02-08T03:35:42.524Z,-0.08
2017-02-08T03:36:51.475Z,-0.1
2017-02-08T03:38:00.421Z,-0.16
2017-02-08T03:39:09.456Z,-0.18
2017-02-08T03:40:18.804Z,-0.15
2017-02-08T03:41:28.157Z,-0.28
2017-02-08T03:42:37.109Z,-0.26
2017-02-08T03:43:46.060Z,-0.25
2017-02-08T03:44:55.006Z,-0.34
2017-02-08T03:46:03.955Z,-0.42
2017-02-08T03:47:12.901Z,-0.39
2017-02-08T03:48:21.845Z,-0.4
2017-02-08T03:49:30.793Z,-0.36
2017-02-08T03:50:39.745Z,-0.36
2017-02-08T03:51:48.694Z,-0.28
2017-02-08T03:52:57.728Z,-0.28
2017-02-08T03:54:06.675Z,-0.26
2017-02-08T03:55:15.621Z,-0.39
2017-02-08T03:56:24.655Z,-0.4
2017-02-08T03:57:33.603Z,-0.34
2017-02-08T03:58:42.550Z,-0.46
2017-02-08T03:59:51.584Z,-0.49
2017-02-08T04:01:00.625Z,-0.39
2017-02-08T04:02:10.313Z,-0.37
2017-02-08T04:03:19.258Z,-0.29
2017-02-08T04:04:28.203Z,-0.19
2017-02-08T04:05:37.236Z,-0.29
2017-02-08T04:06:46.183Z,-0.34
2017-02-08T04:07:55.135Z,-0.33
2017-02-08T04:09:04.126Z,-0.33
2017-02-08T04:10:13.074Z,-0.33
2017-02-08T04:11:22.019Z,-0.44
2017-02-08T04:12:30.996Z,-0.49
2017-02-08T04:13:39.954Z,-0.6
2017-02-08T04:14:48.903Z,-0.7
2017-02-08T04:15:57.849Z,-0.58
2017-02-08T04:17:06.797Z,-0.57
2017-02-08T04:18:16.148Z,-0.52
2017-02-08T04:19:25.094Z,-0.6
2017-02-08T04:20:34.132Z,-0.6
2017-02-08T04:21:43.076Z,-0.52
2017-02-08T04:22:52.027Z,-0.51
2017-02-08T04:24:01.063Z,-0.43
2017-02-08T04:25:10.003Z,-0.39
2017-02-08T04:26:19.354Z,-0.36
2017-02-08T04:27:28.383Z,-0.43
2017-02-08T04:28:37.424Z,-0.49
2017-02-08T04:29:46.374Z,-0.49
2017-02-08T04:30:55.329Z,-0.4
2017-02-08T04:32:04.277Z,-0.4
2017-02-08T04:33:13.226Z,-0.39
2017-02-08T04:34:22.173Z,-0.39
2017-02-08T04:35:31.126Z,-0.4
2017-02-08T04:36:40.068Z,-0.44
2017-02-08T04:37:49.012Z,-0.43
2017-02-08T04:38:57.958Z,-0.33
2017-02-08T04:40:06.955Z,-0.34
2017-02-08T04:41:15.898Z,-0.4
2017-02-08T04:42:24.846Z,-0.47
2017-02-08T04:43:34.206Z,-0.55
2017-02-08T04:44:43.157Z,-0.72
2017-02-08T04:45:52.101Z,-0.78
2017-02-08T04:47:01.049Z,-0.76
2017-02-08T04:48:09.994Z,-0.8
2017-02-08T04:49:18.944Z,-0.78
2017-02-08T04:50:28.298Z,-0.7
2017-02-08T04:51:37.245Z,-0.7
2017-02-08T04:52:46.190Z,-0.69
2017-02-08T04:53:55.138Z,-0.75
2017-02-08T04:55:04.091Z,-0.73
2017-02-08T04:56:13.445Z,-0.7
2017-02-08T04:57:22.388Z,-0.69
2017-02-08T04:58:31.338Z,-0.67
2017-02-08T04:59:40.327Z,-0.73
2017-02-08T05:00:49.681Z,-0.79
2017-02-08T05:01:58.627Z,-0.7
2017-02-08T05:03:07.571Z,-0.79
2017-02-08T05:04:16.519Z,-0.91
2017-02-08T05:05:25.468Z,-0.94
2017-02-08T05:06:34.414Z,-0.78
2017-02-08T05:07:43.769Z,-0.89
2017-02-08T05:08:52.718Z,-0.85
2017-02-08T05:10:01.671Z,-0.82
2017-02-08T05:11:10.620Z,-0.76
2017-02-08T05:12:19.571Z,-0.8
2017-02-08T05:13:28.515Z,-0.79
2017-02-08T05:14:37.461Z,-0.85
2017-02-08T05:15:46.409Z,-0.75
2017-02-08T05:16:55.362Z,-0.76
2017-02-08T05:18:04.311Z,-0.76
2017-02-08T05:19:13.436Z,-0.76
2017-02-08T05:20:22.381Z,-0.75
2017-02-08T05:21:31.328Z,-0.73
2017-02-08T05:22:40.277Z,-0.69
2017-02-08T05:23:49.225Z,-0.82
2017-02-08T05:24:58.177Z,-0.7
2017-02-08T05:26:07.528Z,-0.7
2017-02-08T05:27:16.472Z,-0.69
2017-02-08T05:28:25.418Z,-0.72
2017-02-08T05:29:34.362Z,-0.65
2017-02-08T05:30:43.304Z,-0.69
2017-02-08T05:31:52.251Z,-0.67
2017-02-08T05:33:01.279Z,-0.7
2017-02-08T05:34:10.224Z,-0.78
2017-02-08T05:35:19.167Z,-0.85
2017-02-08T05:36:28.117Z,-0.79
2017-02-08T05:37:37.064Z,-0.72
2017-02-08T05:38:46.007Z,-0.78
2017-02-08T05:39:54.952Z,-0.83
2017-02-08T05:41:03.900Z,-0.82
2017-02-08T05:42:12.972Z,-0.89
2017-02-08T05:43:21.918Z,-0.92
2017-02-08T05:44:30.861Z,-0.94
2017-02-08T05:45:39.807Z,-0.95
2017-02-08T05:46:48.839Z,-0.99
2017-02-08T05:47:57.787Z,-0.92
2017-02-08T05:49:06.731Z,-0.89
2017-02-08T05:50:15.677Z,-0.95
2017-02-08T05:51:24.624Z,-0.98
2017-02-08T05:52:33.665Z,-0.95
2017-02-08T05:53:42.613Z,-0.89
2017-02-08T05:54:51.561Z,-0.89
2017-02-08T05:56:00.509Z,-0.8
2017-02-08T05:57:09.459Z,-0.78
2017-02-08T05:58:18.402Z,-0.78
2017-02-08T05:59:27.347Z,-0.76
2017-02-08T06:00:36.703Z,-0.72
2017-02-08T06:01:45.650Z,-0.72
2017-02-08T06:02:54.623Z,-0.7
2017-02-08T06:04:03.570Z,-0.79
2017-02-08T06:05:12.519Z,-0.8
2017-02-08T06:06:21.554Z,-0.79
2017-02-08T06:07:30.500Z,-0.79
2017-02-08T06:08:39.446Z,-0.86
2017-02-08T06:09:48.392Z,-0.7
2017-02-08T06:10:57.344Z,-0.8
2017-02-08T06:12:06.292Z,-0.7
2017-02-08T06:13:15.238Z,-0.7
2017-02-08T06:14:24.189Z,-0.89
2017-02-08T06:15:33.136Z,-0.8
2017-02-08T06:16:42.090Z,-0.91
2017-02-08T06:17:51.037Z,-0.95
2017-02-08T06:18:59.982Z,-0.92
2017-02-08T06:20:08.928Z,-0.85
2017-02-08T06:21:17.877Z,-0.95
2017-02-08T06:22:26.821Z,-0.92
2017-02-08T06:23:35.766Z,-0.99
2017-02-08T06:24:44.802Z,-1.02
2017-02-08T06:25:53.748Z,-0.99
2017-02-08T06:27:02.694Z,-0.98
2017-02-08T06:28:11.639Z,-1.01
2017-02-08T06:29:20.589Z,-0.99
2017-02-08T06:30:31.604Z,-0.98
2017-02-08T06:31:40.635Z,-0.98
2017-02-08T06:32:49.993Z,-0.97
2017-02-08T06:33:58.941Z,-0.94
2017-02-08T06:35:08.314Z,-0.91
2017-02-08T06:36:17.260Z,-0.89
2017-02-08T06:37:26.208Z,-0.98
2017-02-08T06:38:35.562Z,-1.01
2017-02-08T06:39:45.358Z,-1.04
2017-02-08T06:40:54.301Z,-1.09
2017-02-08T06:42:03.335Z,-1.04
2017-02-08T06:43:12.281Z,-1.09
2017-02-08T06:44:21.233Z,-1.01
2017-02-08T06:45:30.673Z,-0.99
2017-02-08T06:46:39.621Z,-1.04
2017-02-08T06:47:48.570Z,-0.99
2017-02-08T06:48:57.514Z,-0.99
2017-02-08T06:50:06.465Z,-1.02
2017-02-08T06:51:15.410Z,-0.92
2017-02-08T06:52:24.355Z,-0.83
2017-02-08T06:53:33.307Z,-1.02
2017-02-08T06:54:42.255Z,-0.98
2017-02-08T06:55:51.202Z,-1.02
2017-02-08T06:57:00.150Z,-1.02
2017-02-08T06:58:09.094Z,-1.09
2017-02-08T06:59:18.043Z,-1.09
2017-02-08T07:00:27.400Z,-1.22
2017-02-08T07:01:36.344Z,-1.16
2017-02-08T07:02:45.288Z,-1.09
2017-02-08T07:03:54.237Z,-1.05
2017-02-08T07:05:03.184Z,-1.04
2017-02-08T07:06:12.133Z,-1.02
2017-02-08T07:07:21.084Z,-1.02
2017-02-08T07:08:30.034Z,-1.04
2017-02-08T07:09:38.977Z,-1.01
2017-02-08T07:10:47.926Z,-1.1
2017-02-08T07:11:56.958Z,-1.15
2017-02-08T07:13:05.990Z,-1.09
2017-02-08T07:14:14.938Z,-1.15
2017-02-08T07:15:23.881Z,-1.1
2017-02-08T07:16:32.822Z,-0.97
2017-02-08T07:17:41.765Z,-1.07
2017-02-08T07:18:50.715Z,-1.09
2017-02-08T07:19:59.695Z,-1.16
2017-02-08T07:21:08.641Z,-1.13
2017-02-08T07:22:17.585Z,-1.23
2017-02-08T07:23:26.534Z,-1.15
2017-02-08T07:24:35.481Z,-1.17
2017-02-08T07:25:44.516Z,-1.12
2017-02-08T07:26:53.463Z,-1.04
2017-02-08T07:28:02.414Z,-1.13
2017-02-08T07:29:11.361Z,-1.13
2017-02-08T07:30:20.718Z,-1.17
2017-02-08T07:31:29.679Z,-1.04
2017-02-08T07:32:38.656Z,-1.16
2017-02-08T07:33:47.608Z,-1.27
2017-02-08T07:34:56.559Z,-1.27
2017-02-08T07:36:05.520Z,-1.27
2017-02-08T07:37:14.469Z,-1.17
2017-02-08T07:38:23.507Z,-1.22
2017-02-08T07:39:32.456Z,-1.17
2017-02-08T07:40:41.583Z,-1.28
2017-02-08T07:41:50.940Z,-1.31
2017-02-08T07:42:59.892Z,-1.22
2017-02-08T07:44:08.837Z,-1.22
2017-02-08T07:45:17.878Z,-1.05
2017-02-08T07:46:27.232Z,-1.02
2017-02-08T07:47:36.176Z,-1.04
2017-02-08T07:48:45.125Z,-1.04
2017-02-08T07:49:54.078Z,-0.99
2017-02-08T07:51:03.028Z,-1.01
2017-02-08T07:52:11.972Z,-1.02
2017-02-08T07:53:20.920Z,-1.04
2017-02-08T07:54:29.869Z,-1.01
2017-02-08T07:55:38.821Z,-0.98
2017-02-08T07:56:47.773Z,-0.94
2017-02-08T07:57:56.723Z,-0.99
2017-02-08T07:59:05.669Z,-0.98
2017-02-08T08:00:14.608Z,-0.85
2017-02-08T08:01:23.557Z,-0.97
2017-02-08T08:02:32.509Z,-0.95
2017-02-08T08:03:41.456Z,-0.97
2017-02-08T08:04:50.405Z,-1.13
2017-02-08T08:05:59.356Z,-1.17
2017-02-08T08:07:08.303Z,-1.15
2017-02-08T08:08:17.261Z,-1.1
2017-02-08T08:09:26.206Z,-1.16
2017-02-08T08:10:35.155Z,-1.16
2017-02-08T08:11:44.106Z,-1.15
2017-02-08T08:12:53.460Z,-1.13
2017-02-08T08:14:02.406Z,-1.17
2017-02-08T08:15:11.351Z,-1.13
2017-02-08T08:16:20.308Z,-1.22
2017-02-08T08:17:29.255Z,-1.22
2017-02-08T08:18:38.610Z,-1.31
2017-02-08T08:19:47.560Z,-1.41
2017-02-08T08:20:56.505Z,-1.4
2017-02-08T08:22:05.855Z,-1.37
2017-02-08T08:23:14.894Z,-1.28
2017-02-08T08:24:23.842Z,-1.25
2017-02-08T08:25:32.793Z,-1.2
2017-02-08T08:26:42.300Z,-1.17
2017-02-08T08:27:51.635Z,-0.98
2017-02-08T08:29:00.582Z,-0.98
2017-02-08T08:30:10.345Z,-1.05
2017-02-08T08:31:19.734Z,-1.02
2017-02-08T08:32:28.681Z,-1.19
2017-02-08T08:33:37.625Z,-1.15
2017-02-08T08:34:46.572Z,-1.15
2017-02-08T08:35:55.696Z,-1.19
2017-02-08T08:37:04.653Z,-1.2
2017-02-08T08:38:14.019Z,-1.16
2017-02-08T08:39:22.969Z,-1.17
2017-02-08T08:40:32.221Z,-1.25
2017-02-08T08:41:41.165Z,-1.2
2017-02-08T08:42:50.111Z,-1.23
2017-02-08T08:43:59.057Z,-1.23
2017-02-08T08:45:08.006Z,-1.28
2017-02-08T08:46:16.950Z,-1.31
2017-02-08T08:47:25.986Z,-1.3
2017-02-08T08:48:35.382Z,-1.33
2017-02-08T08:49:44.330Z,-1.33
2017-02-08T08:50:53.399Z,-1.27
2017-02-08T08:52:02.353Z,-1.34
2017-02-08T08:53:11.528Z,-1.34
2017-02-08T08:54:20.800Z,-1.27
2017-02-08T08:55:29.743Z,-1.22
2017-02-08T08:56:38.693Z,-1.19
2017-02-08T08:57:47.642Z,-1.16
2017-02-08T08:58:56.678Z,-1.16
2017-02-08T09:00:09.468Z,-1.15
2017-02-08T09:01:23.930Z,-1.22
2017-02-08T09:02:41.566Z,-1.09
2017-02-08T09:03:56.923Z,-1.01
2017-02-08T09:05:05.873Z,-0.83
2017-02-08T09:06:14.819Z,-1.04
2017-02-08T09:07:23.770Z,-1.01
2017-02-08T09:08:32.712Z,-0.95
2017-02-08T09:09:41.741Z,-0.95
2017-02-08T09:10:50.901Z,-0.94
2017-02-08T09:11:59.848Z,-0.94
2017-02-08T09:13:08.840Z,-0.92
2017-02-08T09:14:17.903Z,-0.97
2017-02-08T09:15:27.302Z,-0.86
2017-02-08T09:16:36.570Z,-1.02
2017-02-08T09:17:45.522Z,-1.01
2017-02-08T09:18:54.467Z,-0.98
2017-02-08T09:20:03.409Z,-1.07
2017-02-08T09:21:12.355Z,-1.19
2017-02-08T09:22:21.302Z,-1.09
2017-02-08T09:23:30.657Z,-1.05
2017-02-08T09:24:39.603Z,-1.05
2017-02-08T09:25:48.550Z,-1.01
2017-02-08T09:26:57.494Z,-0.94
2017-02-08T09:28:06.451Z,-0.89
2017-02-08T09:29:15.408Z,-0.95
2017-02-08T09:30:24.351Z,-0.86
2017-02-08T09:31:33.300Z,-0.95
2017-02-08T09:32:42.247Z,-0.95
2017-02-08T09:33:51.226Z,-0.94
2017-02-08T09:35:00.581Z,-0.92
2017-02-08T09:36:09.611Z,-0.86
2017-02-08T09:37:18.557Z,-0.86
2017-02-08T09:38:27.543Z,-0.86
2017-02-08T09:39:36.720Z,-0.85
2017-02-08T09:40:45.857Z,-0.85
2017-02-08T09:41:55.140Z,-0.72
2017-02-08T09:43:04.110Z,-0.72
2017-02-08T09:44:13.344Z,-0.72
2017-02-08T09:45:22.289Z,-0.64
2017-02-08T09:46:31.275Z,-0.72
2017-02-08T09:47:40.222Z,-0.72
2017-02-08T09:48:49.170Z,-0.62
2017-02-08T09:49:58.120Z,-0.65
2017-02-08T09:51:07.073Z,-0.72
2017-02-08T09:52:16.022Z,-0.69
2017-02-08T09:53:24.966Z,-0.62
2017-02-08T09:54:33.912Z,-0.52
2017-02-08T09:55:43.353Z,-0.61
2017-02-08T09:56:53.624Z,-0.57
2017-02-08T09:58:04.919Z,-0.69
2017-02-08T09:59:14.449Z,-0.75
2017-02-08T10:00:23.399Z,-0.72
2017-02-08T10:01:32.344Z,-0.82
2017-02-08T10:02:41.475Z,-0.89
2017-02-08T10:03:50.715Z,-0.89
2017-02-08T10:04:59.667Z,-0.92
2017-02-08T10:06:09.175Z,-0.94
2017-02-08T10:07:18.212Z,-0.78
2017-02-08T10:08:27.259Z,-0.83
2017-02-08T10:09:36.208Z,-0.83
2017-02-08T10:10:45.155Z,-0.72
2017-02-08T10:11:54.104Z,-0.79
2017-02-08T10:13:06.194Z,-0.85
2017-02-08T10:14:17.822Z,-0.79
2017-02-08T10:15:27.341Z,-0.76
2017-02-08T10:16:36.359Z,-0.83
2017-02-08T10:17:45.305Z,-0.73
2017-02-08T10:18:54.252Z,-0.7
2017-02-08T10:20:03.203Z,-0.7
2017-02-08T10:21:12.147Z,-0.64
2017-02-08T10:22:21.096Z,-0.55
2017-02-08T10:23:30.132Z,-0.6
2017-02-08T10:24:39.076Z,-0.64
2017-02-08T10:25:48.025Z,-0.57
2017-02-08T10:26:56.970Z,-0.52
2017-02-08T10:28:05.917Z,-0.47
2017-02-08T10:29:14.871Z,-0.47
2017-02-08T10:30:23.815Z,-0.61
2017-02-08T10:31:32.764Z,-0.55
2017-02-08T10:32:41.707Z,-0.58
2017-02-08T10:33:50.657Z,-0.57
2017-02-08T10:34:59.610Z,-0.57
2017-02-08T10:36:08.559Z,-0.58
2017-02-08T10:37:17.593Z,-0.43
2017-02-08T10:38:26.541Z,-0.49
2017-02-08T10:39:35.487Z,-0.54
2017-02-08T10:40:44.437Z,-0.51
2017-02-08T10:41:53.384Z,-0.54
2017-02-08T10:43:02.328Z,-0.7
2017-02-08T10:44:11.273Z,-0.76
2017-02-08T10:45:20.218Z,-0.75
2017-02-08T10:46:29.168Z,-0.8
2017-02-08T10:47:38.117Z,-0.83
2017-02-08T10:48:47.068Z,-0.8
2017-02-08T10:49:56.014Z,-0.75
2017-02-08T10:51:04.957Z,-0.65
2017-02-08T10:52:13.992Z,-0.46
2017-02-08T10:53:22.945Z,-0.44
2017-02-08T10:54:32.257Z,-0.43
2017-02-08T10:55:42.545Z,-0.52
2017-02-08T10:56:52.027Z,-0.47
2017-02-08T10:58:00.977Z,-0.42
2017-02-08T10:59:10.014Z,-0.43
2017-02-08T11:00:18.964Z,-0.43
2017-02-08T11:01:27.906Z,-0.47
2017-02-08T11:02:36.851Z,-0.55
2017-02-08T11:03:45.880Z,-0.49
2017-02-08T11:04:55.512Z,-0.47
2017-02-08T11:06:04.868Z,-0.39
2017-02-08T11:07:13.816Z,-0.29
2017-02-08T11:08:22.965Z,-0.23
2017-02-08T11:09:32.973Z,-0.21
2017-02-08T11:10:42.600Z,-0.11
2017-02-08T11:11:51.548Z,-0.08
2017-02-08T11:13:00.500Z,-0.14
2017-02-08T11:14:09.630Z,-0.08
2017-02-08T11:15:18.580Z,0.02
2017-02-08T11:16:27.526Z,0.07
2017-02-08T11:17:36.862Z,-0.05
2017-02-08T11:18:45.812Z,-0.04
2017-02-08T11:19:54.760Z,-0.05
2017-02-08T11:21:03.710Z,-0.16
2017-02-08T11:22:13.533Z,0.02
2017-02-08T11:23:22.479Z,-0.04
2017-02-08T11:24:31.515Z,-0.04
2017-02-08T11:25:40.868Z,-0.18
2017-02-08T11:26:49.816Z,-0.04
2017-02-08T11:27:58.881Z,-0.14
2017-02-08T11:29:08.664Z,-0.16
2017-02-08T11:30:17.668Z,-0.11
2017-02-08T11:31:26.899Z,-0.1
2017-02-08T11:32:36.828Z,0.03
2017-02-08T11:33:45.787Z,-0.03
2017-02-08T11:34:54.827Z,0.02
2017-02-08T11:36:04.108Z,-0.04
2017-02-08T11:37:13.053Z,-0.18
2017-02-08T11:38:22.004Z,-0.31
2017-02-08T11:39:30.948Z,-0.11
2017-02-08T11:40:39.895Z,-0.03
2017-02-08T11:41:48.957Z,-0.03
2017-02-08T11:42:57.992Z,-0.04
2017-02-08T11:44:06.940Z,-0.15
2017-02-08T11:45:15.907Z,-0.1
2017-02-08T11:46:24.852Z,0.02
2017-02-08T11:47:33.798Z,-0.08
2017-02-08T11:48:42.741Z,-0.08
2017-02-08T11:49:51.725Z,-0.05
2017-02-08T11:51:01.093Z,-0.05
2017-02-08T11:52:10.039Z,-0.07
2017-02-08T11:53:18.984Z,0.03
2017-02-08T11:54:28.018Z,0.04
2017-02-08T11:55:36.962Z,0.13
2017-02-08T11:56:45.908Z,0.21
2017-02-08T11:57:54.854Z,0.26
2017-02-08T11:59:03.802Z,0.15
2017-02-08T12:00:12.835Z,0.24
2017-02-08T12:01:21.785Z,0.21
2017-02-08T12:02:31.141Z,0.24
2017-02-08T12:03:40.087Z,0.18
2017-02-08T12:04:49.032Z,0.1
2017-02-08T12:05:58.152Z,0.13
2017-02-08T12:07:07.103Z,0.13
2017-02-08T12:08:16.138Z,0.07
2017-02-08T12:09:25.084Z,0.21
2017-02-08T12:10:34.035Z,0.18
2017-02-08T12:11:42.978Z,0.17
2017-02-08T12:12:51.923Z,0.18
2017-02-08T12:14:00.871Z,0.23
2017-02-08T12:15:09.816Z,0.21
2017-02-08T12:16:18.762Z,0.32
2017-02-08T12:17:27.712Z,0.32
2017-02-08T12:18:36.661Z,0.28
2017-02-08T12:19:45.608Z,0.24
2017-02-08T12:20:54.963Z,0.29
2017-02-08T12:22:03.916Z,0.28
2017-02-08T12:23:12.866Z,0.41
2017-02-08T12:24:21.810Z,0.31
2017-02-08T12:25:30.759Z,0.32
2017-02-08T12:26:39.712Z,0.33
2017-02-08T12:27:48.661Z,0.31
2017-02-08T12:28:57.603Z,0.24
2017-02-08T12:30:06.550Z,0.29
2017-02-08T12:31:15.544Z,0.32
2017-02-08T12:32:24.493Z,0.28
2017-02-08T12:33:33.440Z,0.14
2017-02-08T12:34:42.390Z,0.08
2017-02-08T12:35:51.333Z,0.13
2017-02-08T12:37:00.278Z,0.15
2017-02-08T12:38:09.224Z,0.1
2017-02-08T12:39:18.174Z,0.11
2017-02-08T12:40:27.126Z,0.02
2017-02-08T12:41:36.484Z,0.04
2017-02-08T12:42:45.464Z,0.14
2017-02-08T12:43:54.409Z,0.13
2017-02-08T12:45:03.360Z,0.2
2017-02-08T12:46:12.305Z,0.15
2017-02-08T12:47:21.340Z,0.15
2017-02-08T12:48:30.290Z,0.17
2017-02-08T12:49:39.234Z,0.2
2017-02-08T12:50:48.185Z,0.28
2017-02-08T12:51:57.131Z,0.31
2017-02-08T12:53:06.082Z,0.29
2017-02-08T12:54:15.848Z,0.26
2017-02-08T12:55:24.788Z,0.18
2017-02-08T12:56:33.743Z,0.21
2017-02-08T12:57:42.690Z,0.21
2017-02-08T12:58:51.633Z,0.2
2017-02-08T13:00:00.587Z,0.23
2017-02-08T13:01:09.534Z,0.17
2017-02-08T13:02:18.485Z,0.2
2017-02-08T13:03:27.437Z,0.26
2017-02-08T13:04:36.794Z,0.28
2017-02-08T13:05:45.742Z,0.28
2017-02-08T13:06:54.692Z,0.38
2017-02-08T13:08:03.646Z,0.38
2017-02-08T13:09:12.594Z,0.42
2017-02-08T13:10:21.538Z,0.29
2017-02-08T13:11:30.485Z,0.38
2017-02-08T13:12:39.520Z,0.24
2017-02-08T13:13:48.467Z,0.46
2017-02-08T13:14:57.417Z,0.42
2017-02-08T13:16:06.365Z,0.42
2017-02-08T13:17:15.314Z,0.62
2017-02-08T13:18:25.082Z,0.6
2017-02-08T13:19:34.028Z,0.6
2017-02-08T13:20:42.976Z,0.55
2017-02-08T13:21:51.931Z,0.53
2017-02-08T13:23:00.879Z,0.61
2017-02-08T13:24:09.825Z,0.6
2017-02-08T13:25:18.777Z,0.57
2017-02-08T13:26:27.725Z,0.62
2017-02-08T13:27:36.677Z,0.65
2017-02-08T13:28:45.627Z,0.61
2017-02-08T13:29:54.748Z,0.61
2017-02-08T13:31:03.696Z,0.66
2017-02-08T13:32:13.058Z,0.68
2017-02-08T13:33:22.007Z,0.6
2017-02-08T13:34:30.953Z,0.57
2017-02-08T13:35:39.903Z,0.51
2017-02-08T13:36:48.854Z,0.6
2017-02-08T13:37:57.801Z,0.73
2017-02-08T13:39:06.747Z,0.65
2017-02-08T13:40:16.111Z,0.69
2017-02-08T13:41:25.056Z,0.68
2017-02-08T13:42:34.004Z,0.6
2017-02-08T13:43:42.950Z,0.57
2017-02-08T13:44:51.982Z,0.53
2017-02-08T13:46:01.012Z,0.55
2017-02-08T13:47:09.954Z,0.53
2017-02-08T13:48:18.902Z,0.6
2017-02-08T13:49:27.853Z,0.62
2017-02-08T13:50:37.209Z,0.68
2017-02-08T13:51:46.159Z,0.7
2017-02-08T13:52:55.108Z,0.73
2017-02-08T13:54:04.055Z,0.73
2017-02-08T13:55:13.001Z,0.7
2017-02-08T13:56:21.945Z,0.61
2017-02-08T13:57:30.894Z,0.57
2017-02-08T13:58:39.844Z,0.69
2017-02-08T13:59:48.794Z,0.6
2017-02-08T14:00:57.738Z,0.68
2017-02-08T14:02:06.683Z,0.73
2017-02-08T14:03:15.631Z,0.73
2017-02-08T14:04:24.573Z,0.66
2017-02-08T14:05:33.522Z,0.62
2017-02-08T14:06:42.468Z,0.66
2017-02-08T14:07:51.418Z,0.65
2017-02-08T14:09:00.374Z,0.72
2017-02-08T14:10:09.319Z,0.68
2017-02-08T14:11:18.271Z,0.62
2017-02-08T14:12:27.218Z,0.75
2017-02-08T14:13:36.172Z,0.75
2017-02-08T14:14:45.122Z,0.7
2017-02-08T14:15:54.065Z,0.73
2017-02-08T14:17:03.015Z,0.66
2017-02-08T14:18:11.962Z,0.58
2017-02-08T14:19:20.906Z,0.6
2017-02-08T14:20:29.853Z,0.6
2017-02-08T14:21:38.805Z,0.68
2017-02-08T14:22:47.752Z,0.66
2017-02-08T14:23:56.787Z,0.6
2017-02-08T14:25:06.147Z,0.61
2017-02-08T14:26:15.093Z,0.61
2017-02-08T14:27:24.045Z,0.58
2017-02-08T14:28:32.993Z,0.66
2017-02-08T14:29:41.943Z,0.6
2017-02-08T14:30:50.890Z,0.58
2017-02-08T14:33:59.827Z,0.61
2017-02-08T14:41:46.962Z,0.72
2017-02-08T14:42:56.133Z,0.65
2017-02-08T14:44:05.582Z,0.57
2017-02-08T14:45:15.213Z,0.62
2017-02-08T14:46:24.160Z,0.58
2017-02-08T14:47:33.810Z,0.58
2017-02-08T14:48:43.100Z,0.58
2017-02-08T14:49:52.457Z,0.68
2017-02-08T14:51:02.376Z,0.68
2017-02-08T14:52:11.326Z,0.7
2017-02-08T14:53:20.773Z,0.7
2017-02-08T14:54:30.417Z,0.6
2017-02-08T14:55:39.369Z,0.61
2017-02-08T14:56:48.323Z,0.57
2017-02-08T14:57:57.279Z,0.65
2017-02-08T14:59:06.231Z,0.6
2017-02-08T15:00:15.588Z,0.62
2017-02-08T15:01:24.539Z,0.55
2017-02-08T15:02:33.491Z,0.57
2017-02-08T15:03:42.843Z,0.53
2017-02-08T15:04:51.793Z,0.58
2017-02-08T15:06:00.927Z,0.55
2017-02-08T15:07:10.081Z,0.55
2017-02-08T15:08:19.029Z,0.55
2017-02-08T15:09:28.065Z,0.53
2017-02-08T15:10:37.018Z,0.53
2017-02-08T15:11:46.080Z,0.61
2017-02-08T15:12:55.434Z,0.62
2017-02-08T15:14:04.384Z,0.57